Données. Loja

Actualisé: mardi, 30 septembre 2014 20:32 (heure officielle)
Ind. climatologique: 5582A -  Altitude (m): 585
Latitude37° 9' 41'' N - Longitude4° 9' 10'' O -  PositionVoir localisation
MunicipioLoja (Granada) - Ver predicción
Registros - de
Fecha y hora oficial

 

Temp. (°C)

 

Vit. vent (km/h)

 

Dir. vent

 

Rafale (km/h)

 

Dir. rafale

 

Prec. (mm)

 

Pression (hPa)

 

Tend. (hPa)

 

Humidité (%)

 

30/09/2014 20:00 24.1 4 6-SudSud 13 5-Sud-EstSud-Est 0.0 951.4 0.2 37
30/09/2014 19:00 25.0 0 1-CalmeCalme 6 5-Sud-EstSud-Est 0.0 951.0 -0.8 36
30/09/2014 18:00 25.5 0 1-CalmeCalme 9 4-EstEst 0.0 951.1 -1.1 34
30/09/2014 17:00 26.3 3 5-Sud-EstSud-Est 10 4-EstEst 0.0 951.2 -1.9 32
30/09/2014 16:00 25.9 2 4-EstEst 8 5-Sud-EstSud-Est 0.0 951.8 -2.0 30
30/09/2014 15:00 23.2 2 3-Nord-EstNord-Est 9 3-Nord-EstNord-Est 0.0 952.2 -2.1 43
30/09/2014 14:00 22.1 4 4-EstEst 14 4-EstEst 0.0 953.1 -1.1 49
30/09/2014 13:00 20.6 4 4-EstEst 15 4-EstEst 0.0 953.8 -0.3 51
30/09/2014 12:00 18.6 4 3-Nord-EstNord-Est 17 4-EstEst 0.0 954.3 0.5 62
30/09/2014 11:00 16.7 4 3-Nord-EstNord-Est 18 2-NordNord 0.0 954.2 0.7 69
30/09/2014 10:00 15.9 5 4-EstEst 18 4-EstEst 0.0 954.1 1.0 71
30/09/2014 09:00 14.2 4 4-EstEst 13 2-NordNord 0.0 953.8 0.8 82
30/09/2014 08:00 13.6 4 4-EstEst 17 2-NordNord 0.0 953.5 0.4 86
30/09/2014 07:00 14.5 5 4-EstEst 20 4-EstEst 0.0 953.1 -0.6 81
30/09/2014 06:00 14.5 4 4-EstEst 20 5-Sud-EstSud-Est 0.0 953.0 -0.8 84
30/09/2014 05:00 14.1 2 4-EstEst 14 4-EstEst 0.0 953.1 -0.7 83
30/09/2014 04:00 15.9 6 4-EstEst 18 4-EstEst 0.0 953.7 -0.2 74
30/09/2014 03:00 15.4 3 4-EstEst 15 2-NordNord 0.0 953.8 -0.1 81
30/09/2014 02:00 15.6 3 4-EstEst 15 4-EstEst 0.0 953.8 -0.3 83
30/09/2014 01:00 16.7 4 4-EstEst 15 4-EstEst 0.0 953.9 0.0 74
30/09/2014 00:00 17.1 3 4-EstEst 13 2-NordNord 0.0 953.9 0.3 78
29/09/2014 23:00 16.9 2 5-Sud-EstSud-Est 8 5-Sud-EstSud-Est 0.0 954.1 0.8 81
29/09/2014 22:00 17.4 3 4-EstEst 14 5-Sud-EstSud-Est 0.0 953.9 0.9 77
29/09/2014 21:00 17.5 3 3-Nord-EstNord-Est 12 3-Nord-EstNord-Est 0.2 953.6 1.3 77
First Page First Page First Page Last Page
Lineas por página
Página   de  
Partager:  
En esta página podrá acceder, en forma gráfica y en tabla, a las observaciones horarias de las últimas 24 horas, así como a los valores extremos y acumulados desde las 00 horas del día hasta la hora de actualización indicada, obtenidos en la red de estaciones de AEMET. También podrá acceder a los resúmenes diarios de estas estaciones en los últimos 7 días.

En el mapa aparecen estaciones con valor númerico y otras representadas por un punto. En las primeras, al pasar el ratón, aparece un desplegable con la información completa de la estación. Las estaciones representadas por un punto son estaciones de la red climatológica, con transmisión de datos superior a la hora, por lo que al seleccionarlas pueden no aparecer los últimos datos.

Los datos presentados han sido únicamente sometidos a controles automáticos de calidad en tiempo real, por lo que no puede garantizarse la ausencia de errores.
Toute utilisation et reproduction de l'information est autorisé sous réserve de mentionner AEMETen tant qu'auteur de celle-ci